sensor_id;sensor_type;location;lat;lon;timestamp;temperature;humidity
2024;DHT22;1016;48.770;9.154;2023-01-01T00:01:40;13.60;99.90
2024;DHT22;1016;48.770;9.154;2023-01-01T00:04:10;13.60;99.90
2024;DHT22;1016;48.770;9.154;2023-01-01T00:06:36;13.60;99.90
2024;DHT22;1016;48.770;9.154;2023-01-01T00:09:02;13.60;99.90
2024;DHT22;1016;48.770;9.154;2023-01-01T00:11:46;13.60;99.90
2024;DHT22;1016;48.770;9.154;2023-01-01T00:14:12;13.60;99.90
2024;DHT22;1016;48.770;9.154;2023-01-01T00:16:37;13.70;99.90
2024;DHT22;1016;48.770;9.154;2023-01-01T00:19:03;13.60;99.90
2024;DHT22;1016;48.770;9.154;2023-01-01T00:21:28;13.70;99.90
2024;DHT22;1016;48.770;9.154;2023-01-01T00:23:54;13.70;99.90
2024;DHT22;1016;48.770;9.154;2023-01-01T00:26:20;13.60;99.90
2024;DHT22;1016;48.770;9.154;2023-01-01T00:28:45;13.60;99.90
2024;DHT22;1016;48.770;9.154;2023-01-01T00:31:17;13.60;99.90
2024;DHT22;1016;48.770;9.154;2023-01-01T00:33:44;13.60;99.90
2024;DHT22;1016;48.770;9.154;2023-01-01T00:36:13;13.60;99.90
2024;DHT22;1016;48.770;9.154;2023-01-01T00:38:39;13.60;99.90
2024;DHT22;1016;48.770;9.154;2023-01-01T00:41:05;13.60;99.90
2024;DHT22;1016;48.770;9.154;2023-01-01T00:43:32;13.60;99.90
2024;DHT22;1016;48.770;9.154;2023-01-01T00:45:57;13.60;99.90
2024;DHT22;1016;48.770;9.154;2023-01-01T00:48:23;13.50;99.90
2024;DHT22;1016;48.770;9.154;2023-01-01T00:50:52;13.40;99.90
2024;DHT22;1016;48.770;9.154;2023-01-01T00:53:18;13.30;99.90
2024;DHT22;1016;48.770;9.154;2023-01-01T00:55:44;13.30;99.90
2024;DHT22;1016;48.770;9.154;2023-01-01T00:58:11;13.30;99.90
2024;DHT22;1016;48.770;9.154;2023-01-01T01:00:37;13.20;99.90
2024;DHT22;1016;48.770;9.154;2023-01-01T01:03:03;13.20;99.90
2024;DHT22;1016;48.770;9.154;2023-01-01T01:05:29;13.20;99.90
2024;DHT22;1016;48.770;9.154;2023-01-01T01:07:54;13.20;99.90
2024;DHT22;1016;48.770;9.154;2023-01-01T01:10:20;13.10;99.90
2024;DHT22;1016;48.770;9.154;2023-01-01T01:12:46;13.10;99.90
2024;DHT22;1016;48.770;9.154;2023-01-01T01:15:12;13.10;99.90
2024;DHT22;1016;48.770;9.154;2023-01-01T01:17:38;13.10;99.90
2024;DHT22;1016;48.770;9.154;2023-01-01T01:20:04;13.10;99.90
2024;DHT22;1016;48.770;9.154;2023-01-01T01:22:30;13.10;99.90
2024;DHT22;1016;48.770;9.154;2023-01-01T01:24:56;13.10;99.90
2024;DHT22;1016;48.770;9.154;2023-01-01T01:27:22;13.20;99.90
2024;DHT22;1016;48.770;9.154;2023-01-01T01:29:48;13.10;99.90
2024;DHT22;1016;48.770;9.154;2023-01-01T01:32:13;13.10;99.90
2024;DHT22;1016;48.770;9.154;2023-01-01T01:34:39;13.20;99.90
2024;DHT22;1016;48.770;9.154;2023-01-01T01:37:04;13.20;99.90
2024;DHT22;1016;48.770;9.154;2023-01-01T01:39:30;13.10;99.90
2024;DHT22;1016;48.770;9.154;2023-01-01T01:41:56;13.10;99.90
2024;DHT22;1016;48.770;9.154;2023-01-01T01:44:51;13.10;99.90
2024;DHT22;1016;48.770;9.154;2023-01-01T01:47:34;13.00;99.90
2024;DHT22;1016;48.770;9.154;2023-01-01T01:50:08;13.00;99.90
2024;DHT22;1016;48.770;9.154;2023-01-01T01:52:36;12.60;99.90
2024;DHT22;1016;48.770;9.154;2023-01-01T01:55:05;12.90;99.90
2024;DHT22;1016;48.770;9.154;2023-01-01T01:57:32;12.90;99.90
2024;DHT22;1016;48.770;9.154;2023-01-01T01:59:59;12.90;99.90
2024;DHT22;1016;48.770;9.154;2023-01-01T02:02:36;13.00;99.90
2024;DHT22;1016;48.770;9.154;2023-01-01T02:05:03;13.00;99.90
2024;DHT22;1016;48.770;9.154;2023-01-01T02:07:30;12.90;99.90
2024;DHT22;1016;48.770;9.154;2023-01-01T02:09:57;13.00;99.90
2024;DHT22;1016;48.770;9.154;2023-01-01T02:12:23;12.80;99.90
2024;DHT22;1016;48.770;9.154;2023-01-01T02:14:50;12.80;99.90
2024;DHT22;1016;48.770;9.154;2023-01-01T02:17:32;12.70;99.90
2024;DHT22;1016;48.770;9.154;2023-01-01T02:23:24;12.70;99.90
2024;DHT22;1016;48.770;9.154;2023-01-01T02:29:01;12.60;99.90
2024;DHT22;1016;48.770;9.154;2023-01-01T02:31:34;12.70;99.90
2024;DHT22;1016;48.770;9.154;2023-01-01T02:34:04;12.60;99.90
2024;DHT22;1016;48.770;9.154;2023-01-01T02:36:32;12.60;99.90
2024;DHT22;1016;48.770;9.154;2023-01-01T02:39:01;12.50;99.90
2024;DHT22;1016;48.770;9.154;2023-01-01T02:41:37;12.50;99.90
2024;DHT22;1016;48.770;9.154;2023-01-01T02:44:04;12.50;99.90
2024;DHT22;1016;48.770;9.154;2023-01-01T02:46:31;12.40;99.90
2024;DHT22;1016;48.770;9.154;2023-01-01T02:48:57;12.30;99.90
2024;DHT22;1016;48.770;9.154;2023-01-01T02:51:47;12.40;99.90
2024;DHT22;1016;48.770;9.154;2023-01-01T03:00:07;12.30;99.90
2024;DHT22;1016;48.770;9.154;2023-01-01T03:03:13;12.30;99.90
2024;DHT22;1016;48.770;9.154;2023-01-01T03:05:52;12.20;99.90
2024;DHT22;1016;48.770;9.154;2023-01-01T03:09:02;12.20;99.90
2024;DHT22;1016;48.770;9.154;2023-01-01T03:14:23;12.20;99.90
2024;DHT22;1016;48.770;9.154;2023-01-01T03:17:20;12.10;99.90
2024;DHT22;1016;48.770;9.154;2023-01-01T03:19:48;12.10;99.90
2024;DHT22;1016;48.770;9.154;2023-01-01T03:22:16;12.20;99.90
2024;DHT22;1016;48.770;9.154;2023-01-01T03:24:48;12.10;99.90
2024;DHT22;1016;48.770;9.154;2023-01-01T03:27:18;12.10;99.90
2024;DHT22;1016;48.770;9.154;2023-01-01T03:29:46;12.00;99.90
2024;DHT22;1016;48.770;9.154;2023-01-01T03:32:19;12.00;99.90
2024;DHT22;1016;48.770;9.154;2023-01-01T03:34:52;12.00;99.90
2024;DHT22;1016;48.770;9.154;2023-01-01T03:37:23;11.90;99.90
2024;DHT22;1016;48.770;9.154;2023-01-01T03:39:51;11.90;99.90
2024;DHT22;1016;48.770;9.154;2023-01-01T03:42:40;11.90;99.90
2024;DHT22;1016;48.770;9.154;2023-01-01T03:45:21;11.80;99.90
2024;DHT22;1016;48.770;9.154;2023-01-01T03:47:49;11.80;99.90
2024;DHT22;1016;48.770;9.154;2023-01-01T03:50:14;11.70;99.90
2024;DHT22;1016;48.770;9.154;2023-01-01T03:52:55;11.80;99.90
2024;DHT22;1016;48.770;9.154;2023-01-01T03:55:35;11.70;99.90
2024;DHT22;1016;48.770;9.154;2023-01-01T03:58:20;11.80;99.90
2024;DHT22;1016;48.770;9.154;2023-01-01T04:01:05;11.70;99.90
2024;DHT22;1016;48.770;9.154;2023-01-01T04:03:33;11.70;99.90
2024;DHT22;1016;48.770;9.154;2023-01-01T04:06:01;11.70;99.90
2024;DHT22;1016;48.770;9.154;2023-01-01T04:08:27;11.60;99.90
2024;DHT22;1016;48.770;9.154;2023-01-01T04:10:57;11.60;99.90
2024;DHT22;1016;48.770;9.154;2023-01-01T04:13:23;11.50;99.90
2024;DHT22;1016;48.770;9.154;2023-01-01T04:15:49;11.50;99.90
2024;DHT22;1016;48.770;9.154;2023-01-01T04:18:15;11.50;99.90
2024;DHT22;1016;48.770;9.154;2023-01-01T04:20:40;11.50;99.90
2024;DHT22;1016;48.770;9.154;2023-01-01T04:23:06;11.50;99.90
2024;DHT22;1016;48.770;9.154;2023-01-01T04:25:32;11.50;99.90
2024;DHT22;1016;48.770;9.154;2023-01-01T04:27:57;11.50;99.90
2024;DHT22;1016;48.770;9.154;2023-01-01T04:30:23;11.50;99.90
2024;DHT22;1016;48.770;9.154;2023-01-01T04:32:49;11.50;99.90
2024;DHT22;1016;48.770;9.154;2023-01-01T04:35:14;11.50;99.90
2024;DHT22;1016;48.770;9.154;2023-01-01T04:37:41;11.60;99.90
2024;DHT22;1016;48.770;9.154;2023-01-01T04:40:08;11.50;99.90
2024;DHT22;1016;48.770;9.154;2023-01-01T04:42:34;11.50;99.90
2024;DHT22;1016;48.770;9.154;2023-01-01T04:45:00;11.50;99.90
2024;DHT22;1016;48.770;9.154;2023-01-01T04:47:25;11.50;99.90
2024;DHT22;1016;48.770;9.154;2023-01-01T04:49:51;11.50;99.90
2024;DHT22;1016;48.770;9.154;2023-01-01T04:52:17;11.60;99.90
2024;DHT22;1016;48.770;9.154;2023-01-01T04:54:43;11.50;99.90
2024;DHT22;1016;48.770;9.154;2023-01-01T04:57:09;11.50;99.90
2024;DHT22;1016;48.770;9.154;2023-01-01T04:59:34;11.50;99.90
2024;DHT22;1016;48.770;9.154;2023-01-01T05:02:00;11.40;99.90
2024;DHT22;1016;48.770;9.154;2023-01-01T05:04:25;11.40;99.90
2024;DHT22;1016;48.770;9.154;2023-01-01T05:06:51;11.50;99.90
2024;DHT22;1016;48.770;9.154;2023-01-01T05:09:16;11.40;99.90
2024;DHT22;1016;48.770;9.154;2023-01-01T05:11:42;11.40;99.90
2024;DHT22;1016;48.770;9.154;2023-01-01T05:14:07;11.40;99.90
2024;DHT22;1016;48.770;9.154;2023-01-01T05:16:37;11.40;99.90
2024;DHT22;1016;48.770;9.154;2023-01-01T05:19:05;11.40;99.90
2024;DHT22;1016;48.770;9.154;2023-01-01T05:21:33;11.50;99.90
2024;DHT22;1016;48.770;9.154;2023-01-01T05:24:04;11.50;99.90
2024;DHT22;1016;48.770;9.154;2023-01-01T05:26:32;11.50;99.90
2024;DHT22;1016;48.770;9.154;2023-01-01T05:28:59;11.50;99.90
2024;DHT22;1016;48.770;9.154;2023-01-01T05:31:27;11.50;99.90
2024;DHT22;1016;48.770;9.154;2023-01-01T05:33:53;11.50;99.90
2024;DHT22;1016;48.770;9.154;2023-01-01T05:36:22;11.50;99.90
2024;DHT22;1016;48.770;9.154;2023-01-01T05:38:49;11.50;99.90
2024;DHT22;1016;48.770;9.154;2023-01-01T05:41:16;11.60;99.90
2024;DHT22;1016;48.770;9.154;2023-01-01T05:43:42;11.50;99.90
2024;DHT22;1016;48.770;9.154;2023-01-01T05:46:14;11.60;99.90
2024;DHT22;1016;48.770;9.154;2023-01-01T05:48:40;11.60;99.90
2024;DHT22;1016;48.770;9.154;2023-01-01T05:51:11;11.60;99.90
2024;DHT22;1016;48.770;9.154;2023-01-01T05:53:37;11.60;99.90
2024;DHT22;1016;48.770;9.154;2023-01-01T05:56:03;11.60;99.90
2024;DHT22;1016;48.770;9.154;2023-01-01T05:58:31;11.60;99.90
2024;DHT22;1016;48.770;9.154;2023-01-01T06:01:03;11.50;99.90
2024;DHT22;1016;48.770;9.154;2023-01-01T06:03:29;11.60;99.90
2024;DHT22;1016;48.770;9.154;2023-01-01T06:05:54;11.60;99.90
2024;DHT22;1016;48.770;9.154;2023-01-01T06:08:20;11.60;99.90
2024;DHT22;1016;48.770;9.154;2023-01-01T06:10:45;11.60;99.90
2024;DHT22;1016;48.770;9.154;2023-01-01T06:13:11;11.60;99.90
2024;DHT22;1016;48.770;9.154;2023-01-01T06:15:36;11.60;99.90
2024;DHT22;1016;48.770;9.154;2023-01-01T06:18:02;11.60;99.90
2024;DHT22;1016;48.770;9.154;2023-01-01T06:20:27;11.60;99.90
2024;DHT22;1016;48.770;9.154;2023-01-01T06:22:53;11.60;99.90
2024;DHT22;1016;48.770;9.154;2023-01-01T06:25:18;11.60;99.90
2024;DHT22;1016;48.770;9.154;2023-01-01T06:27:44;11.60;99.90
2024;DHT22;1016;48.770;9.154;2023-01-01T06:30:09;11.60;99.90
2024;DHT22;1016;48.770;9.154;2023-01-01T06:32:35;11.50;99.90
2024;DHT22;1016;48.770;9.154;2023-01-01T06:35:00;11.50;99.90
2024;DHT22;1016;48.770;9.154;2023-01-01T06:37:29;11.60;99.90
2024;DHT22;1016;48.770;9.154;2023-01-01T06:39:54;11.60;99.90
2024;DHT22;1016;48.770;9.154;2023-01-01T06:42:20;11.60;99.90
2024;DHT22;1016;48.770;9.154;2023-01-01T06:44:45;11.50;99.90
2024;DHT22;1016;48.770;9.154;2023-01-01T06:47:11;11.60;99.90
2024;DHT22;1016;48.770;9.154;2023-01-01T06:49:36;11.60;99.90
2024;DHT22;1016;48.770;9.154;2023-01-01T06:52:02;11.50;99.90
2024;DHT22;1016;48.770;9.154;2023-01-01T06:54:27;11.60;99.90
2024;DHT22;1016;48.770;9.154;2023-01-01T06:56:53;11.60;99.90
2024;DHT22;1016;48.770;9.154;2023-01-01T06:59:18;11.50;99.90
2024;DHT22;1016;48.770;9.154;2023-01-01T07:01:44;11.50;99.90
2024;DHT22;1016;48.770;9.154;2023-01-01T07:04:11;11.50;99.90
2024;DHT22;1016;48.770;9.154;2023-01-01T07:06:38;11.50;99.90
2024;DHT22;1016;48.770;9.154;2023-01-01T07:09:04;11.60;99.90
2024;DHT22;1016;48.770;9.154;2023-01-01T07:11:30;11.60;99.90
2024;DHT22;1016;48.770;9.154;2023-01-01T07:13:56;11.70;99.90
2024;DHT22;1016;48.770;9.154;2023-01-01T07:16:22;11.60;99.90
2024;DHT22;1016;48.770;9.154;2023-01-01T07:18:48;11.60;99.90
2024;DHT22;1016;48.770;9.154;2023-01-01T07:23:52;11.70;99.90
2024;DHT22;1016;48.770;9.154;2023-01-01T07:26:21;11.60;99.90
2024;DHT22;1016;48.770;9.154;2023-01-01T07:28:47;11.60;99.90
2024;DHT22;1016;48.770;9.154;2023-01-01T07:31:12;11.60;99.90
2024;DHT22;1016;48.770;9.154;2023-01-01T07:33:38;11.60;99.90
2024;DHT22;1016;48.770;9.154;2023-01-01T07:36:04;11.60;99.90
2024;DHT22;1016;48.770;9.154;2023-01-01T07:38:29;11.60;99.90
2024;DHT22;1016;48.770;9.154;2023-01-01T07:40:55;11.50;99.90
2024;DHT22;1016;48.770;9.154;2023-01-01T07:43:20;11.50;99.90
2024;DHT22;1016;48.770;9.154;2023-01-01T07:45:45;11.60;99.90
2024;DHT22;1016;48.770;9.154;2023-01-01T07:48:13;11.60;99.90
2024;DHT22;1016;48.770;9.154;2023-01-01T07:50:40;11.70;99.90
2024;DHT22;1016;48.770;9.154;2023-01-01T07:53:05;11.90;99.90
2024;DHT22;1016;48.770;9.154;2023-01-01T07:55:31;11.90;99.90
2024;DHT22;1016;48.770;9.154;2023-01-01T07:57:58;11.90;99.90
2024;DHT22;1016;48.770;9.154;2023-01-01T08:00:24;11.90;99.90
2024;DHT22;1016;48.770;9.154;2023-01-01T08:02:49;11.90;99.90
2024;DHT22;1016;48.770;9.154;2023-01-01T08:05:15;11.90;99.90
2024;DHT22;1016;48.770;9.154;2023-01-01T08:07:47;11.90;99.90
2024;DHT22;1016;48.770;9.154;2023-01-01T08:10:14;11.90;99.90
2024;DHT22;1016;48.770;9.154;2023-01-01T08:12:39;11.80;99.90
2024;DHT22;1016;48.770;9.154;2023-01-01T08:15:06;11.80;99.90
2024;DHT22;1016;48.770;9.154;2023-01-01T08:17:31;11.90;99.90
2024;DHT22;1016;48.770;9.154;2023-01-01T08:19:57;11.90;99.90
2024;DHT22;1016;48.770;9.154;2023-01-01T08:22:22;11.90;99.90
2024;DHT22;1016;48.770;9.154;2023-01-01T08:24:48;11.90;99.90
2024;DHT22;1016;48.770;9.154;2023-01-01T08:27:14;11.90;99.90
2024;DHT22;1016;48.770;9.154;2023-01-01T08:29:40;11.90;99.90
2024;DHT22;1016;48.770;9.154;2023-01-01T08:32:06;11.90;99.90
2024;DHT22;1016;48.770;9.154;2023-01-01T08:34:32;11.90;99.90
2024;DHT22;1016;48.770;9.154;2023-01-01T08:36:57;11.90;99.90
2024;DHT22;1016;48.770;9.154;2023-01-01T08:39:24;11.90;99.90
2024;DHT22;1016;48.770;9.154;2023-01-01T08:41:49;11.90;99.90
2024;DHT22;1016;48.770;9.154;2023-01-01T08:44:15;11.90;99.90
2024;DHT22;1016;48.770;9.154;2023-01-01T08:46:40;11.90;99.90
2024;DHT22;1016;48.770;9.154;2023-01-01T08:49:06;11.80;99.90
2024;DHT22;1016;48.770;9.154;2023-01-01T08:51:31;11.80;99.90
2024;DHT22;1016;48.770;9.154;2023-01-01T08:53:57;11.80;99.90
2024;DHT22;1016;48.770;9.154;2023-01-01T08:56:22;11.80;99.90
2024;DHT22;1016;48.770;9.154;2023-01-01T08:58:48;11.90;99.90
2024;DHT22;1016;48.770;9.154;2023-01-01T09:01:14;11.90;99.90
2024;DHT22;1016;48.770;9.154;2023-01-01T09:03:39;11.90;99.90
2024;DHT22;1016;48.770;9.154;2023-01-01T09:06:05;11.90;99.90
2024;DHT22;1016;48.770;9.154;2023-01-01T09:08:31;11.90;99.90
2024;DHT22;1016;48.770;9.154;2023-01-01T09:10:59;11.90;99.90
2024;DHT22;1016;48.770;9.154;2023-01-01T09:13:25;11.90;99.90
2024;DHT22;1016;48.770;9.154;2023-01-01T09:15:50;12.00;99.90
2024;DHT22;1016;48.770;9.154;2023-01-01T09:18:16;12.00;99.90
2024;DHT22;1016;48.770;9.154;2023-01-01T09:20:41;12.00;99.90
2024;DHT22;1016;48.770;9.154;2023-01-01T09:23:07;12.10;99.90
2024;DHT22;1016;48.770;9.154;2023-01-01T09:25:34;12.10;99.90
2024;DHT22;1016;48.770;9.154;2023-01-01T09:28:07;12.10;99.90
2024;DHT22;1016;48.770;9.154;2023-01-01T09:30:35;12.20;99.90
2024;DHT22;1016;48.770;9.154;2023-01-01T09:33:01;12.20;99.90
2024;DHT22;1016;48.770;9.154;2023-01-01T09:35:28;12.20;99.90
2024;DHT22;1016;48.770;9.154;2023-01-01T09:37:53;12.20;99.90
2024;DHT22;1016;48.770;9.154;2023-01-01T09:40:35;12.20;99.90
2024;DHT22;1016;48.770;9.154;2023-01-01T09:43:20;12.20;99.90
2024;DHT22;1016;48.770;9.154;2023-01-01T09:45:57;12.20;99.90
2024;DHT22;1016;48.770;9.154;2023-01-01T09:48:24;12.20;99.90
2024;DHT22;1016;48.770;9.154;2023-01-01T09:50:51;12.20;99.90
2024;DHT22;1016;48.770;9.154;2023-01-01T09:53:41;12.20;99.90
2024;DHT22;1016;48.770;9.154;2023-01-01T09:56:24;12.30;99.90
2024;DHT22;1016;48.770;9.154;2023-01-01T09:58:50;12.30;99.90
2024;DHT22;1016;48.770;9.154;2023-01-01T10:06:37;12.50;99.90
2024;DHT22;1016;48.770;9.154;2023-01-01T10:11:45;12.60;99.90
2024;DHT22;1016;48.770;9.154;2023-01-01T10:14:38;12.70;99.90
2024;DHT22;1016;48.770;9.154;2023-01-01T10:17:17;12.80;99.90
2024;DHT22;1016;48.770;9.154;2023-01-01T10:19:51;12.80;99.90
2024;DHT22;1016;48.770;9.154;2023-01-01T10:22:26;12.90;99.90
2024;DHT22;1016;48.770;9.154;2023-01-01T10:24:58;12.90;99.90
2024;DHT22;1016;48.770;9.154;2023-01-01T10:27:35;12.90;99.90
2024;DHT22;1016;48.770;9.154;2023-01-01T10:30:11;13.00;99.90
2024;DHT22;1016;48.770;9.154;2023-01-01T10:32:37;13.00;99.90
2024;DHT22;1016;48.770;9.154;2023-01-01T10:35:12;13.10;99.90
2024;DHT22;1016;48.770;9.154;2023-01-01T10:37:39;13.10;99.90
2024;DHT22;1016;48.770;9.154;2023-01-01T10:40:13;13.10;99.90
2024;DHT22;1016;48.770;9.154;2023-01-01T10:42:40;13.10;99.90
2024;DHT22;1016;48.770;9.154;2023-01-01T10:45:10;13.30;99.90
2024;DHT22;1016;48.770;9.154;2023-01-01T10:47:36;13.30;99.90
2024;DHT22;1016;48.770;9.154;2023-01-01T10:50:04;13.30;99.90
2024;DHT22;1016;48.770;9.154;2023-01-01T10:52:36;13.40;99.90
2024;DHT22;1016;48.770;9.154;2023-01-01T10:55:03;13.40;99.90
2024;DHT22;1016;48.770;9.154;2023-01-01T10:57:36;13.50;99.90
2024;DHT22;1016;48.770;9.154;2023-01-01T11:00:22;13.50;99.90
2024;DHT22;1016;48.770;9.154;2023-01-01T11:03:18;13.60;99.90
2024;DHT22;1016;48.770;9.154;2023-01-01T11:08:33;13.70;99.90
2024;DHT22;1016;48.770;9.154;2023-01-01T11:11:01;13.70;99.90
2024;DHT22;1016;48.770;9.154;2023-01-01T11:13:28;13.70;99.90
2024;DHT22;1016;48.770;9.154;2023-01-01T11:15:54;13.70;99.90
2024;DHT22;1016;48.770;9.154;2023-01-01T11:18:22;13.80;99.90
2024;DHT22;1016;48.770;9.154;2023-01-01T11:20:59;13.80;99.90
2024;DHT22;1016;48.770;9.154;2023-01-01T11:23:31;13.90;99.90
2024;DHT22;1016;48.770;9.154;2023-01-01T11:26:02;14.00;99.90
2024;DHT22;1016;48.770;9.154;2023-01-01T11:28:30;14.00;99.90
2024;DHT22;1016;48.770;9.154;2023-01-01T11:31:09;14.00;99.90
2024;DHT22;1016;48.770;9.154;2023-01-01T11:33:53;14.00;99.90
2024;DHT22;1016;48.770;9.154;2023-01-01T11:36:29;14.00;99.90
2024;DHT22;1016;48.770;9.154;2023-01-01T11:39:19;14.00;99.90
2024;DHT22;1016;48.770;9.154;2023-01-01T11:41:48;14.10;99.90
2024;DHT22;1016;48.770;9.154;2023-01-01T11:44:40;14.10;99.90
2024;DHT22;1016;48.770;9.154;2023-01-01T11:47:26;14.20;99.90
2024;DHT22;1016;48.770;9.154;2023-01-01T11:52:49;14.30;99.90
2024;DHT22;1016;48.770;9.154;2023-01-01T11:58:44;14.50;99.90
2024;DHT22;1016;48.770;9.154;2023-01-01T12:00:53;14.50;99.90
2024;DHT22;1016;48.770;9.154;2023-01-01T12:08:38;14.70;99.90
2024;DHT22;1016;48.770;9.154;2023-01-01T12:11:23;14.70;99.90
2024;DHT22;1016;48.770;9.154;2023-01-01T12:14:01;14.70;99.90
2024;DHT22;1016;48.770;9.154;2023-01-01T12:16:54;14.70;99.90
2024;DHT22;1016;48.770;9.154;2023-01-01T12:19:25;14.70;99.90
2024;DHT22;1016;48.770;9.154;2023-01-01T12:21:55;14.70;99.90
2024;DHT22;1016;48.770;9.154;2023-01-01T12:24:21;14.70;99.90
2024;DHT22;1016;48.770;9.154;2023-01-01T12:29:55;14.80;99.90
2024;DHT22;1016;48.770;9.154;2023-01-01T12:40:37;15.10;99.90
2024;DHT22;1016;48.770;9.154;2023-01-01T12:43:26;15.00;99.90
2024;DHT22;1016;48.770;9.154;2023-01-01T12:51:24;15.00;99.90
2024;DHT22;1016;48.770;9.154;2023-01-01T12:54:34;15.00;99.90
2024;DHT22;1016;48.770;9.154;2023-01-01T12:57:31;15.00;99.90
2024;DHT22;1016;48.770;9.154;2023-01-01T13:00:00;15.00;99.90
2024;DHT22;1016;48.770;9.154;2023-01-01T13:02:29;15.10;99.90
2024;DHT22;1016;48.770;9.154;2023-01-01T13:05:05;15.10;99.90
2024;DHT22;1016;48.770;9.154;2023-01-01T13:07:38;15.10;99.90
2024;DHT22;1016;48.770;9.154;2023-01-01T13:12:41;15.10;99.90
2024;DHT22;1016;48.770;9.154;2023-01-01T13:21:01;15.10;99.90
2024;DHT22;1016;48.770;9.154;2023-01-01T13:34:31;15.20;99.90
2024;DHT22;1016;48.770;9.154;2023-01-01T13:40:02;15.20;99.90
2024;DHT22;1016;48.770;9.154;2023-01-01T13:45:31;15.20;99.90
2024;DHT22;1016;48.770;9.154;2023-01-01T13:48:11;15.20;99.90
2024;DHT22;1016;48.770;9.154;2023-01-01T13:50:57;15.20;99.90
2024;DHT22;1016;48.770;9.154;2023-01-01T13:56:42;15.20;99.90
2024;DHT22;1016;48.770;9.154;2023-01-01T13:59:42;15.20;99.90
2024;DHT22;1016;48.770;9.154;2023-01-01T14:05:00;15.10;99.90
2024;DHT22;1016;48.770;9.154;2023-01-01T14:10:23;15.00;99.90
2024;DHT22;1016;48.770;9.154;2023-01-01T14:12:50;15.00;99.90
2024;DHT22;1016;48.770;9.154;2023-01-01T14:17:49;14.90;99.90
2024;DHT22;1016;48.770;9.154;2023-01-01T14:20:17;14.90;99.90
2024;DHT22;1016;48.770;9.154;2023-01-01T14:22:44;14.80;99.90
2024;DHT22;1016;48.770;9.154;2023-01-01T14:25:24;14.80;99.90
2024;DHT22;1016;48.770;9.154;2023-01-01T14:27:52;14.90;99.90
2024;DHT22;1016;48.770;9.154;2023-01-01T14:30:18;14.80;99.90
2024;DHT22;1016;48.770;9.154;2023-01-01T14:32:44;14.80;99.90
2024;DHT22;1016;48.770;9.154;2023-01-01T14:35:16;14.80;99.90
2024;DHT22;1016;48.770;9.154;2023-01-01T14:37:42;14.70;99.90
2024;DHT22;1016;48.770;9.154;2023-01-01T14:40:28;14.70;99.90
2024;DHT22;1016;48.770;9.154;2023-01-01T14:43:00;14.60;99.90
2024;DHT22;1016;48.770;9.154;2023-01-01T14:45:28;14.60;99.90
2024;DHT22;1016;48.770;9.154;2023-01-01T14:47:55;14.50;99.90
2024;DHT22;1016;48.770;9.154;2023-01-01T14:50:29;14.50;99.90
2024;DHT22;1016;48.770;9.154;2023-01-01T14:53:01;14.40;99.90
2024;DHT22;1016;48.770;9.154;2023-01-01T14:55:31;14.30;99.90
2024;DHT22;1016;48.770;9.154;2023-01-01T14:57:59;14.30;99.90
2024;DHT22;1016;48.770;9.154;2023-01-01T15:00:29;14.20;99.90
2024;DHT22;1016;48.770;9.154;2023-01-01T15:03:04;14.20;99.90
2024;DHT22;1016;48.770;9.154;2023-01-01T15:05:32;14.10;99.90
2024;DHT22;1016;48.770;9.154;2023-01-01T15:08:00;14.00;99.90
2024;DHT22;1016;48.770;9.154;2023-01-01T15:10:28;14.00;99.90
2024;DHT22;1016;48.770;9.154;2023-01-01T15:12:55;13.90;99.90
2024;DHT22;1016;48.770;9.154;2023-01-01T15:15:39;13.90;99.90
2024;DHT22;1016;48.770;9.154;2023-01-01T15:18:15;13.80;99.90
2024;DHT22;1016;48.770;9.154;2023-01-01T15:20:52;13.70;99.90
2024;DHT22;1016;48.770;9.154;2023-01-01T15:23:18;13.60;99.90
2024;DHT22;1016;48.770;9.154;2023-01-01T15:25:44;13.60;99.90
2024;DHT22;1016;48.770;9.154;2023-01-01T15:28:19;13.60;99.90
2024;DHT22;1016;48.770;9.154;2023-01-01T15:30:51;13.50;99.90
2024;DHT22;1016;48.770;9.154;2023-01-01T15:33:18;13.40;99.90
2024;DHT22;1016;48.770;9.154;2023-01-01T15:35:49;13.40;99.90
2024;DHT22;1016;48.770;9.154;2023-01-01T15:38:24;13.40;99.90
2024;DHT22;1016;48.770;9.154;2023-01-01T15:40:50;13.30;99.90
2024;DHT22;1016;48.770;9.154;2023-01-01T15:43:29;13.30;99.90
2024;DHT22;1016;48.770;9.154;2023-01-01T15:45:58;13.20;99.90
2024;DHT22;1016;48.770;9.154;2023-01-01T15:48:35;13.20;99.90
2024;DHT22;1016;48.770;9.154;2023-01-01T15:51:09;13.20;99.90
2024;DHT22;1016;48.770;9.154;2023-01-01T15:53:59;13.10;99.90
2024;DHT22;1016;48.770;9.154;2023-01-01T15:56:29;13.10;99.90
2024;DHT22;1016;48.770;9.154;2023-01-01T15:59:00;13.00;99.90
2024;DHT22;1016;48.770;9.154;2023-01-01T16:01:29;13.00;99.90
2024;DHT22;1016;48.770;9.154;2023-01-01T16:04:08;13.00;99.90
2024;DHT22;1016;48.770;9.154;2023-01-01T16:06:45;13.00;99.90
2024;DHT22;1016;48.770;9.154;2023-01-01T16:09:12;13.00;99.90
2024;DHT22;1016;48.770;9.154;2023-01-01T16:11:38;12.90;99.90
2024;DHT22;1016;48.770;9.154;2023-01-01T16:14:04;12.90;99.90
2024;DHT22;1016;48.770;9.154;2023-01-01T16:16:30;12.90;99.90
2024;DHT22;1016;48.770;9.154;2023-01-01T16:18:56;12.90;99.90
2024;DHT22;1016;48.770;9.154;2023-01-01T16:21:24;12.90;99.90
2024;DHT22;1016;48.770;9.154;2023-01-01T16:23:51;12.80;99.90
2024;DHT22;1016;48.770;9.154;2023-01-01T16:26:16;12.80;99.90
2024;DHT22;1016;48.770;9.154;2023-01-01T16:28:42;12.80;99.90
2024;DHT22;1016;48.770;9.154;2023-01-01T16:31:13;12.80;99.90
2024;DHT22;1016;48.770;9.154;2023-01-01T16:33:39;12.80;99.90
2024;DHT22;1016;48.770;9.154;2023-01-01T16:36:04;12.70;99.90
2024;DHT22;1016;48.770;9.154;2023-01-01T16:38:30;12.70;99.90
2024;DHT22;1016;48.770;9.154;2023-01-01T16:40:55;12.70;99.90
2024;DHT22;1016;48.770;9.154;2023-01-01T16:43:21;12.70;99.90
2024;DHT22;1016;48.770;9.154;2023-01-01T16:45:46;12.70;99.90
2024;DHT22;1016;48.770;9.154;2023-01-01T16:48:12;12.70;99.90
2024;DHT22;1016;48.770;9.154;2023-01-01T16:50:38;12.70;99.90
2024;DHT22;1016;48.770;9.154;2023-01-01T16:53:03;12.70;99.90
2024;DHT22;1016;48.770;9.154;2023-01-01T16:55:29;12.60;99.90
2024;DHT22;1016;48.770;9.154;2023-01-01T16:57:54;12.60;99.90
2024;DHT22;1016;48.770;9.154;2023-01-01T17:00:20;12.60;99.90
2024;DHT22;1016;48.770;9.154;2023-01-01T17:02:48;12.60;99.90
2024;DHT22;1016;48.770;9.154;2023-01-01T17:05:14;12.60;99.90
2024;DHT22;1016;48.770;9.154;2023-01-01T17:07:39;12.50;99.90
2024;DHT22;1016;48.770;9.154;2023-01-01T17:10:05;12.50;99.90
2024;DHT22;1016;48.770;9.154;2023-01-01T17:12:31;12.60;99.90
2024;DHT22;1016;48.770;9.154;2023-01-01T17:14:56;12.50;99.90
2024;DHT22;1016;48.770;9.154;2023-01-01T17:17:22;12.50;99.90
2024;DHT22;1016;48.770;9.154;2023-01-01T17:19:47;12.40;99.90
2024;DHT22;1016;48.770;9.154;2023-01-01T17:22:15;12.40;99.90
2024;DHT22;1016;48.770;9.154;2023-01-01T17:24:40;12.40;99.90
2024;DHT22;1016;48.770;9.154;2023-01-01T17:27:06;12.30;99.90
2024;DHT22;1016;48.770;9.154;2023-01-01T17:29:32;12.30;99.90
2024;DHT22;1016;48.770;9.154;2023-01-01T17:31:57;12.20;99.90
2024;DHT22;1016;48.770;9.154;2023-01-01T17:34:23;12.20;99.90
2024;DHT22;1016;48.770;9.154;2023-01-01T17:36:48;12.20;99.90
2024;DHT22;1016;48.770;9.154;2023-01-01T17:39:14;12.20;99.90
2024;DHT22;1016;48.770;9.154;2023-01-01T17:41:41;12.20;99.90
2024;DHT22;1016;48.770;9.154;2023-01-01T17:44:07;12.20;99.90
2024;DHT22;1016;48.770;9.154;2023-01-01T17:46:33;12.20;99.90
2024;DHT22;1016;48.770;9.154;2023-01-01T17:49:00;12.10;99.90
2024;DHT22;1016;48.770;9.154;2023-01-01T17:51:25;12.10;99.90